sensor_id;sensor_type;location;lat;lon;timestamp;temperature;humidity
62581;DHT22;48640;48.770;9.148;2023-06-24T00:00:21;18.80;74.60
62581;DHT22;48640;48.770;9.148;2023-06-24T00:02:49;18.80;74.40
62581;DHT22;48640;48.770;9.148;2023-06-24T00:05:16;18.80;74.70
62581;DHT22;48640;48.770;9.148;2023-06-24T00:07:43;18.70;75.40
62581;DHT22;48640;48.770;9.148;2023-06-24T00:10:11;18.60;76.10
62581;DHT22;48640;48.770;9.148;2023-06-24T00:12:38;18.60;76.10
62581;DHT22;48640;48.770;9.148;2023-06-24T00:15:08;18.50;76.70
62581;DHT22;48640;48.770;9.148;2023-06-24T00:17:37;18.40;77.50
62581;DHT22;48640;48.770;9.148;2023-06-24T00:20:04;18.30;78.20
62581;DHT22;48640;48.770;9.148;2023-06-24T00:22:37;18.30;78.40
62581;DHT22;48640;48.770;9.148;2023-06-24T00:25:09;18.30;78.60
62581;DHT22;48640;48.770;9.148;2023-06-24T00:27:36;18.20;79.10
62581;DHT22;48640;48.770;9.148;2023-06-24T00:30:04;18.30;78.90
62581;DHT22;48640;48.770;9.148;2023-06-24T00:32:30;18.20;79.30
62581;DHT22;48640;48.770;9.148;2023-06-24T00:34:59;18.10;79.60
62581;DHT22;48640;48.770;9.148;2023-06-24T00:37:25;18.10;80.00
62581;DHT22;48640;48.770;9.148;2023-06-24T00:39:52;18.00;80.30
62581;DHT22;48640;48.770;9.148;2023-06-24T00:42:19;17.90;80.70
62581;DHT22;48640;48.770;9.148;2023-06-24T00:44:46;17.90;80.90
62581;DHT22;48640;48.770;9.148;2023-06-24T00:47:14;17.90;81.70
62581;DHT22;48640;48.770;9.148;2023-06-24T00:49:41;17.80;82.20
62581;DHT22;48640;48.770;9.148;2023-06-24T00:52:11;17.80;82.40
62581;DHT22;48640;48.770;9.148;2023-06-24T00:54:41;17.80;82.80
62581;DHT22;48640;48.770;9.148;2023-06-24T00:57:09;17.80;82.90
62581;DHT22;48640;48.770;9.148;2023-06-24T00:59:36;17.90;83.30
62581;DHT22;48640;48.770;9.148;2023-06-24T01:02:04;18.00;83.00
62581;DHT22;48640;48.770;9.148;2023-06-24T01:04:31;18.00;83.70
62581;DHT22;48640;48.770;9.148;2023-06-24T01:06:59;17.90;83.80
62581;DHT22;48640;48.770;9.148;2023-06-24T01:09:28;17.80;83.70
62581;DHT22;48640;48.770;9.148;2023-06-24T01:11:55;17.90;84.10
62581;DHT22;48640;48.770;9.148;2023-06-24T01:14:21;17.90;84.00
62581;DHT22;48640;48.770;9.148;2023-06-24T01:16:55;17.80;85.00
62581;DHT22;48640;48.770;9.148;2023-06-24T01:19:44;17.80;85.40
62581;DHT22;48640;48.770;9.148;2023-06-24T01:22:24;17.70;85.20
62581;DHT22;48640;48.770;9.148;2023-06-24T01:25:06;17.70;85.00
62581;DHT22;48640;48.770;9.148;2023-06-24T01:31:00;17.60;85.30
62581;DHT22;48640;48.770;9.148;2023-06-24T01:33:38;17.60;85.80
62581;DHT22;48640;48.770;9.148;2023-06-24T01:36:08;17.60;85.70
62581;DHT22;48640;48.770;9.148;2023-06-24T01:38:43;17.50;86.50
62581;DHT22;48640;48.770;9.148;2023-06-24T01:41:12;17.50;87.10
62581;DHT22;48640;48.770;9.148;2023-06-24T01:43:42;17.40;87.60
62581;DHT22;48640;48.770;9.148;2023-06-24T01:46:10;17.30;88.00
62581;DHT22;48640;48.770;9.148;2023-06-24T01:48:41;17.40;88.10
62581;DHT22;48640;48.770;9.148;2023-06-24T01:51:11;17.30;88.30
62581;DHT22;48640;48.770;9.148;2023-06-24T01:53:42;17.30;88.60
62581;DHT22;48640;48.770;9.148;2023-06-24T01:56:11;17.20;88.90
62581;DHT22;48640;48.770;9.148;2023-06-24T01:58:38;17.20;89.50
62581;DHT22;48640;48.770;9.148;2023-06-24T02:01:07;17.20;89.80
62581;DHT22;48640;48.770;9.148;2023-06-24T02:03:35;17.20;90.10
62581;DHT22;48640;48.770;9.148;2023-06-24T02:06:04;17.20;90.10
62581;DHT22;48640;48.770;9.148;2023-06-24T02:08:36;17.10;90.30
62581;DHT22;48640;48.770;9.148;2023-06-24T02:11:04;17.20;90.40
62581;DHT22;48640;48.770;9.148;2023-06-24T02:13:32;17.20;90.30
62581;DHT22;48640;48.770;9.148;2023-06-24T02:16:01;17.40;90.00
62581;DHT22;48640;48.770;9.148;2023-06-24T02:18:29;17.50;89.50
62581;DHT22;48640;48.770;9.148;2023-06-24T02:20:56;17.50;89.80
62581;DHT22;48640;48.770;9.148;2023-06-24T02:23:25;17.50;90.00
62581;DHT22;48640;48.770;9.148;2023-06-24T02:25:53;17.40;90.10
62581;DHT22;48640;48.770;9.148;2023-06-24T02:28:20;17.40;90.20
62581;DHT22;48640;48.770;9.148;2023-06-24T02:30:48;17.40;90.20
62581;DHT22;48640;48.770;9.148;2023-06-24T02:33:15;17.40;90.20
62581;DHT22;48640;48.770;9.148;2023-06-24T02:35:43;17.40;90.30
62581;DHT22;48640;48.770;9.148;2023-06-24T02:38:11;17.40;90.20
62581;DHT22;48640;48.770;9.148;2023-06-24T02:40:39;17.40;90.30
62581;DHT22;48640;48.770;9.148;2023-06-24T02:43:06;17.40;90.20
62581;DHT22;48640;48.770;9.148;2023-06-24T02:45:33;17.30;90.30
62581;DHT22;48640;48.770;9.148;2023-06-24T02:48:00;17.30;90.60
62581;DHT22;48640;48.770;9.148;2023-06-24T02:50:28;17.30;90.60
62581;DHT22;48640;48.770;9.148;2023-06-24T02:52:55;17.30;90.70
62581;DHT22;48640;48.770;9.148;2023-06-24T02:55:23;17.20;90.90
62581;DHT22;48640;48.770;9.148;2023-06-24T02:57:51;17.20;91.00
62581;DHT22;48640;48.770;9.148;2023-06-24T03:00:19;17.20;91.20
62581;DHT22;48640;48.770;9.148;2023-06-24T03:02:47;17.10;91.40
62581;DHT22;48640;48.770;9.148;2023-06-24T03:05:15;17.10;91.40
62581;DHT22;48640;48.770;9.148;2023-06-24T03:07:42;17.00;91.30
62581;DHT22;48640;48.770;9.148;2023-06-24T03:10:10;17.00;91.40
62581;DHT22;48640;48.770;9.148;2023-06-24T03:12:37;17.00;90.90
62581;DHT22;48640;48.770;9.148;2023-06-24T03:15:06;17.10;91.20
62581;DHT22;48640;48.770;9.148;2023-06-24T03:17:34;17.00;91.50
62581;DHT22;48640;48.770;9.148;2023-06-24T03:20:02;17.00;91.10
62581;DHT22;48640;48.770;9.148;2023-06-24T03:22:30;17.10;91.20
62581;DHT22;48640;48.770;9.148;2023-06-24T03:24:57;17.10;91.30
62581;DHT22;48640;48.770;9.148;2023-06-24T03:27:24;17.10;91.30
62581;DHT22;48640;48.770;9.148;2023-06-24T03:29:51;17.20;91.10
62581;DHT22;48640;48.770;9.148;2023-06-24T03:32:19;17.20;91.00
62581;DHT22;48640;48.770;9.148;2023-06-24T03:34:46;17.10;91.10
62581;DHT22;48640;48.770;9.148;2023-06-24T03:37:13;17.10;91.10
62581;DHT22;48640;48.770;9.148;2023-06-24T03:39:39;17.20;90.70
62581;DHT22;48640;48.770;9.148;2023-06-24T03:42:06;17.20;90.90
62581;DHT22;48640;48.770;9.148;2023-06-24T03:44:33;17.20;90.50
62581;DHT22;48640;48.770;9.148;2023-06-24T03:47:00;17.20;90.30
62581;DHT22;48640;48.770;9.148;2023-06-24T03:49:28;17.20;90.70
62581;DHT22;48640;48.770;9.148;2023-06-24T03:51:55;17.30;90.70
62581;DHT22;48640;48.770;9.148;2023-06-24T03:54:22;17.30;90.40
62581;DHT22;48640;48.770;9.148;2023-06-24T03:56:48;17.40;90.40
62581;DHT22;48640;48.770;9.148;2023-06-24T03:59:15;17.30;90.40
62581;DHT22;48640;48.770;9.148;2023-06-24T04:01:42;17.30;90.60
62581;DHT22;48640;48.770;9.148;2023-06-24T04:04:09;17.40;90.40
62581;DHT22;48640;48.770;9.148;2023-06-24T04:06:37;17.40;90.00
62581;DHT22;48640;48.770;9.148;2023-06-24T04:09:04;17.50;89.90
62581;DHT22;48640;48.770;9.148;2023-06-24T04:11:32;17.50;90.10
62581;DHT22;48640;48.770;9.148;2023-06-24T04:13:58;17.50;90.00
62581;DHT22;48640;48.770;9.148;2023-06-24T04:16:25;17.50;90.00
62581;DHT22;48640;48.770;9.148;2023-06-24T04:18:52;17.50;90.30
62581;DHT22;48640;48.770;9.148;2023-06-24T04:21:19;17.60;90.60
62581;DHT22;48640;48.770;9.148;2023-06-24T04:23:47;17.70;90.10
62581;DHT22;48640;48.770;9.148;2023-06-24T04:26:14;17.90;90.00
62581;DHT22;48640;48.770;9.148;2023-06-24T04:28:40;17.90;90.10
62581;DHT22;48640;48.770;9.148;2023-06-24T04:31:07;18.00;89.50
62581;DHT22;48640;48.770;9.148;2023-06-24T04:33:34;18.10;88.90
62581;DHT22;48640;48.770;9.148;2023-06-24T04:36:01;18.10;88.20
62581;DHT22;48640;48.770;9.148;2023-06-24T04:38:28;18.20;88.50
62581;DHT22;48640;48.770;9.148;2023-06-24T04:40:56;18.30;88.00
62581;DHT22;48640;48.770;9.148;2023-06-24T04:43:25;18.40;87.60
62581;DHT22;48640;48.770;9.148;2023-06-24T04:45:53;18.50;87.50
62581;DHT22;48640;48.770;9.148;2023-06-24T04:48:22;18.50;86.80
62581;DHT22;48640;48.770;9.148;2023-06-24T04:50:49;18.50;86.50
62581;DHT22;48640;48.770;9.148;2023-06-24T04:53:16;18.60;86.10
62581;DHT22;48640;48.770;9.148;2023-06-24T04:55:43;18.70;87.10
62581;DHT22;48640;48.770;9.148;2023-06-24T04:58:11;18.90;87.70
62581;DHT22;48640;48.770;9.148;2023-06-24T05:00:38;19.00;86.80
62581;DHT22;48640;48.770;9.148;2023-06-24T05:03:05;19.20;85.90
62581;DHT22;48640;48.770;9.148;2023-06-24T05:05:32;19.20;85.50
62581;DHT22;48640;48.770;9.148;2023-06-24T05:07:59;19.30;84.50
62581;DHT22;48640;48.770;9.148;2023-06-24T05:10:26;19.30;84.10
62581;DHT22;48640;48.770;9.148;2023-06-24T05:12:52;19.30;84.30
62581;DHT22;48640;48.770;9.148;2023-06-24T05:15:21;19.30;83.90
62581;DHT22;48640;48.770;9.148;2023-06-24T05:17:48;19.30;84.00
62581;DHT22;48640;48.770;9.148;2023-06-24T05:20:15;19.40;83.90
62581;DHT22;48640;48.770;9.148;2023-06-24T05:22:43;19.60;83.30
62581;DHT22;48640;48.770;9.148;2023-06-24T05:25:10;19.60;83.10
62581;DHT22;48640;48.770;9.148;2023-06-24T05:27:37;19.70;83.00
62581;DHT22;48640;48.770;9.148;2023-06-24T05:30:04;19.80;82.60
62581;DHT22;48640;48.770;9.148;2023-06-24T05:32:33;19.90;82.80
62581;DHT22;48640;48.770;9.148;2023-06-24T05:35:00;20.30;82.80
62581;DHT22;48640;48.770;9.148;2023-06-24T05:37:27;20.70;79.50
62581;DHT22;48640;48.770;9.148;2023-06-24T05:39:54;21.30;78.20
62581;DHT22;48640;48.770;9.148;2023-06-24T05:42:22;22.00;76.10
62581;DHT22;48640;48.770;9.148;2023-06-24T05:44:51;22.60;72.70
62581;DHT22;48640;48.770;9.148;2023-06-24T05:47:18;23.00;70.00
62581;DHT22;48640;48.770;9.148;2023-06-24T05:49:46;23.30;68.60
62581;DHT22;48640;48.770;9.148;2023-06-24T05:52:13;23.80;66.70
62581;DHT22;48640;48.770;9.148;2023-06-24T05:54:39;24.40;63.90
62581;DHT22;48640;48.770;9.148;2023-06-24T05:57:06;25.00;62.40
62581;DHT22;48640;48.770;9.148;2023-06-24T05:59:34;25.70;59.10
62581;DHT22;48640;48.770;9.148;2023-06-24T06:02:01;25.80;57.50
62581;DHT22;48640;48.770;9.148;2023-06-24T06:04:28;25.80;57.50
62581;DHT22;48640;48.770;9.148;2023-06-24T06:06:56;26.10;57.30
62581;DHT22;48640;48.770;9.148;2023-06-24T06:09:23;26.80;55.60
62581;DHT22;48640;48.770;9.148;2023-06-24T06:11:50;27.00;54.40
62581;DHT22;48640;48.770;9.148;2023-06-24T06:14:17;26.80;52.80
62581;DHT22;48640;48.770;9.148;2023-06-24T06:16:44;26.00;53.90
62581;DHT22;48640;48.770;9.148;2023-06-24T06:19:11;26.10;55.40
62581;DHT22;48640;48.770;9.148;2023-06-24T06:21:38;26.20;53.80
62581;DHT22;48640;48.770;9.148;2023-06-24T06:24:06;26.40;54.30
62581;DHT22;48640;48.770;9.148;2023-06-24T06:26:34;26.90;53.90
62581;DHT22;48640;48.770;9.148;2023-06-24T06:29:00;26.80;53.10
62581;DHT22;48640;48.770;9.148;2023-06-24T06:31:27;26.90;52.20
62581;DHT22;48640;48.770;9.148;2023-06-24T06:33:54;26.90;51.60
62581;DHT22;48640;48.770;9.148;2023-06-24T06:36:21;26.70;51.50
62581;DHT22;48640;48.770;9.148;2023-06-24T06:38:48;26.70;52.50
62581;DHT22;48640;48.770;9.148;2023-06-24T06:41:16;26.90;50.70
62581;DHT22;48640;48.770;9.148;2023-06-24T06:43:49;26.90;49.50
62581;DHT22;48640;48.770;9.148;2023-06-24T06:46:16;27.30;48.70
62581;DHT22;48640;48.770;9.148;2023-06-24T06:48:43;27.30;49.20
62581;DHT22;48640;48.770;9.148;2023-06-24T06:51:10;27.90;47.40
62581;DHT22;48640;48.770;9.148;2023-06-24T06:53:37;28.10;47.90
62581;DHT22;48640;48.770;9.148;2023-06-24T06:56:04;28.80;46.10
62581;DHT22;48640;48.770;9.148;2023-06-24T06:58:32;28.80;44.70
62581;DHT22;48640;48.770;9.148;2023-06-24T07:00:59;29.10;44.40
62581;DHT22;48640;48.770;9.148;2023-06-24T07:03:30;28.60;43.60
62581;DHT22;48640;48.770;9.148;2023-06-24T07:05:57;28.70;44.10
62581;DHT22;48640;48.770;9.148;2023-06-24T07:08:24;28.50;44.80
62581;DHT22;48640;48.770;9.148;2023-06-24T07:10:51;28.60;44.40
62581;DHT22;48640;48.770;9.148;2023-06-24T07:13:18;28.50;44.40
62581;DHT22;48640;48.770;9.148;2023-06-24T07:15:46;28.30;44.20
62581;DHT22;48640;48.770;9.148;2023-06-24T07:18:13;28.00;45.10
62581;DHT22;48640;48.770;9.148;2023-06-24T07:20:40;27.90;44.70
62581;DHT22;48640;48.770;9.148;2023-06-24T07:23:07;27.80;44.90
62581;DHT22;48640;48.770;9.148;2023-06-24T07:25:35;27.80;45.20
62581;DHT22;48640;48.770;9.148;2023-06-24T07:28:02;28.30;43.50
62581;DHT22;48640;48.770;9.148;2023-06-24T07:30:29;28.20;42.90
62581;DHT22;48640;48.770;9.148;2023-06-24T07:32:59;28.10;43.20
62581;DHT22;48640;48.770;9.148;2023-06-24T07:35:30;28.60;43.80
62581;DHT22;48640;48.770;9.148;2023-06-24T07:37:57;29.20;41.90
62581;DHT22;48640;48.770;9.148;2023-06-24T07:40:24;29.90;40.10
62581;DHT22;48640;48.770;9.148;2023-06-24T07:42:51;30.20;39.70
62581;DHT22;48640;48.770;9.148;2023-06-24T07:45:18;30.40;39.30
62581;DHT22;48640;48.770;9.148;2023-06-24T07:47:45;30.30;39.20
62581;DHT22;48640;48.770;9.148;2023-06-24T07:50:13;29.70;40.00
62581;DHT22;48640;48.770;9.148;2023-06-24T07:52:40;30.30;39.10
62581;DHT22;48640;48.770;9.148;2023-06-24T07:55:07;30.50;38.50
62581;DHT22;48640;48.770;9.148;2023-06-24T07:57:34;30.70;38.20
62581;DHT22;48640;48.770;9.148;2023-06-24T08:00:01;30.30;38.80
62581;DHT22;48640;48.770;9.148;2023-06-24T08:02:28;30.70;37.80
62581;DHT22;48640;48.770;9.148;2023-06-24T08:04:55;30.90;38.50
62581;DHT22;48640;48.770;9.148;2023-06-24T08:07:24;31.20;37.10
62581;DHT22;48640;48.770;9.148;2023-06-24T08:09:51;31.90;35.90
62581;DHT22;48640;48.770;9.148;2023-06-24T08:12:17;32.00;36.20
62581;DHT22;48640;48.770;9.148;2023-06-24T08:14:44;32.60;35.20
62581;DHT22;48640;48.770;9.148;2023-06-24T08:17:11;33.70;33.40
62581;DHT22;48640;48.770;9.148;2023-06-24T08:19:38;34.70;31.70
62581;DHT22;48640;48.770;9.148;2023-06-24T08:22:05;35.40;30.80
62581;DHT22;48640;48.770;9.148;2023-06-24T08:24:33;34.70;30.30
62581;DHT22;48640;48.770;9.148;2023-06-24T08:27:00;34.90;31.10
62581;DHT22;48640;48.770;9.148;2023-06-24T08:29:27;35.20;30.80
62581;DHT22;48640;48.770;9.148;2023-06-24T08:31:54;36.50;28.80
62581;DHT22;48640;48.770;9.148;2023-06-24T08:34:21;36.20;29.40
62581;DHT22;48640;48.770;9.148;2023-06-24T08:36:48;36.10;28.60
62581;DHT22;48640;48.770;9.148;2023-06-24T08:39:14;35.50;29.60
62581;DHT22;48640;48.770;9.148;2023-06-24T08:41:43;36.00;28.70
62581;DHT22;48640;48.770;9.148;2023-06-24T08:44:09;36.00;28.90
62581;DHT22;48640;48.770;9.148;2023-06-24T08:46:37;36.30;28.40
62581;DHT22;48640;48.770;9.148;2023-06-24T08:49:10;36.90;27.70
62581;DHT22;48640;48.770;9.148;2023-06-24T08:51:41;37.30;27.10
62581;DHT22;48640;48.770;9.148;2023-06-24T08:54:09;37.30;27.10
62581;DHT22;48640;48.770;9.148;2023-06-24T08:56:37;37.10;26.30
62581;DHT22;48640;48.770;9.148;2023-06-24T08:59:06;36.30;27.70
62581;DHT22;48640;48.770;9.148;2023-06-24T09:01:33;35.70;29.00
62581;DHT22;48640;48.770;9.148;2023-06-24T09:04:00;36.70;27.40
62581;DHT22;48640;48.770;9.148;2023-06-24T09:06:27;37.10;26.90
62581;DHT22;48640;48.770;9.148;2023-06-24T09:08:55;37.00;26.80
62581;DHT22;48640;48.770;9.148;2023-06-24T09:11:22;37.10;27.20
62581;DHT22;48640;48.770;9.148;2023-06-24T09:13:54;38.90;26.50
62581;DHT22;48640;48.770;9.148;2023-06-24T09:16:24;39.10;24.80
62581;DHT22;48640;48.770;9.148;2023-06-24T09:18:52;38.80;25.10
62581;DHT22;48640;48.770;9.148;2023-06-24T09:21:23;39.50;25.30
62581;DHT22;48640;48.770;9.148;2023-06-24T09:23:52;41.10;24.20
62581;DHT22;48640;48.770;9.148;2023-06-24T09:26:21;41.20;22.60
62581;DHT22;48640;48.770;9.148;2023-06-24T09:28:49;40.60;23.10
62581;DHT22;48640;48.770;9.148;2023-06-24T09:31:17;39.90;23.20
62581;DHT22;48640;48.770;9.148;2023-06-24T09:33:46;39.10;24.20
62581;DHT22;48640;48.770;9.148;2023-06-24T09:36:13;39.20;23.80
62581;DHT22;48640;48.770;9.148;2023-06-24T09:38:42;38.30;24.00
62581;DHT22;48640;48.770;9.148;2023-06-24T09:41:10;37.80;24.70
62581;DHT22;48640;48.770;9.148;2023-06-24T09:43:37;37.10;25.60
62581;DHT22;48640;48.770;9.148;2023-06-24T09:46:05;36.90;25.90
62581;DHT22;48640;48.770;9.148;2023-06-24T09:48:33;37.20;25.30
62581;DHT22;48640;48.770;9.148;2023-06-24T09:51:03;37.30;25.00
62581;DHT22;48640;48.770;9.148;2023-06-24T09:53:31;38.50;23.50
62581;DHT22;48640;48.770;9.148;2023-06-24T09:55:59;37.80;23.90
62581;DHT22;48640;48.770;9.148;2023-06-24T09:58:27;37.70;24.90
62581;DHT22;48640;48.770;9.148;2023-06-24T10:00:54;38.10;23.60
62581;DHT22;48640;48.770;9.148;2023-06-24T10:03:22;37.20;24.20
62581;DHT22;48640;48.770;9.148;2023-06-24T10:05:49;36.60;24.70
62581;DHT22;48640;48.770;9.148;2023-06-24T10:08:18;35.50;25.40
62581;DHT22;48640;48.770;9.148;2023-06-24T10:10:45;35.30;26.40
62581;DHT22;48640;48.770;9.148;2023-06-24T10:13:12;35.70;25.70
62581;DHT22;48640;48.770;9.148;2023-06-24T10:15:40;36.40;25.30
62581;DHT22;48640;48.770;9.148;2023-06-24T10:18:31;37.10;24.10
62581;DHT22;48640;48.770;9.148;2023-06-24T10:20:58;37.30;24.10
62581;DHT22;48640;48.770;9.148;2023-06-24T10:23:31;36.60;25.50
62581;DHT22;48640;48.770;9.148;2023-06-24T10:25:58;37.50;24.60
62581;DHT22;48640;48.770;9.148;2023-06-24T10:28:25;38.40;23.80
62581;DHT22;48640;48.770;9.148;2023-06-24T10:30:55;38.10;22.90
62581;DHT22;48640;48.770;9.148;2023-06-24T10:33:24;36.80;24.50
62581;DHT22;48640;48.770;9.148;2023-06-24T10:35:51;36.10;25.60
62581;DHT22;48640;48.770;9.148;2023-06-24T10:38:18;36.20;25.50
62581;DHT22;48640;48.770;9.148;2023-06-24T10:40:49;37.10;24.90
62581;DHT22;48640;48.770;9.148;2023-06-24T10:43:28;36.70;24.80
62581;DHT22;48640;48.770;9.148;2023-06-24T10:45:57;36.50;25.20
62581;DHT22;48640;48.770;9.148;2023-06-24T10:48:24;35.70;24.70
62581;DHT22;48640;48.770;9.148;2023-06-24T10:50:51;35.20;26.50
62581;DHT22;48640;48.770;9.148;2023-06-24T10:53:19;35.90;26.00
62581;DHT22;48640;48.770;9.148;2023-06-24T10:55:47;35.70;25.70
62581;DHT22;48640;48.770;9.148;2023-06-24T10:58:15;36.70;25.20
62581;DHT22;48640;48.770;9.148;2023-06-24T11:00:42;36.90;25.40
62581;DHT22;48640;48.770;9.148;2023-06-24T11:03:14;37.70;23.60
62581;DHT22;48640;48.770;9.148;2023-06-24T11:05:42;37.90;22.60
62581;DHT22;48640;48.770;9.148;2023-06-24T11:08:10;37.80;22.10
62581;DHT22;48640;48.770;9.148;2023-06-24T11:10:45;36.90;22.60
62581;DHT22;48640;48.770;9.148;2023-06-24T11:13:14;35.70;24.00
62581;DHT22;48640;48.770;9.148;2023-06-24T11:15:41;35.40;24.90
62581;DHT22;48640;48.770;9.148;2023-06-24T11:18:09;34.80;24.80
62581;DHT22;48640;48.770;9.148;2023-06-24T11:20:37;34.60;24.60
62581;DHT22;48640;48.770;9.148;2023-06-24T11:23:07;34.70;24.30
62581;DHT22;48640;48.770;9.148;2023-06-24T11:25:39;34.90;24.30
62581;DHT22;48640;48.770;9.148;2023-06-24T11:28:14;34.90;24.00
62581;DHT22;48640;48.770;9.148;2023-06-24T11:30:41;34.90;25.20
62581;DHT22;48640;48.770;9.148;2023-06-24T11:33:08;34.90;25.50
62581;DHT22;48640;48.770;9.148;2023-06-24T11:35:35;35.30;24.70
62581;DHT22;48640;48.770;9.148;2023-06-24T11:38:03;35.90;24.60
62581;DHT22;48640;48.770;9.148;2023-06-24T11:40:31;36.00;23.80
62581;DHT22;48640;48.770;9.148;2023-06-24T11:43:00;35.80;24.50
62581;DHT22;48640;48.770;9.148;2023-06-24T11:45:29;35.80;24.00
62581;DHT22;48640;48.770;9.148;2023-06-24T11:48:02;36.20;23.30
62581;DHT22;48640;48.770;9.148;2023-06-24T11:50:31;35.90;23.80
62581;DHT22;48640;48.770;9.148;2023-06-24T11:52:58;34.90;25.60
62581;DHT22;48640;48.770;9.148;2023-06-24T11:55:26;34.70;25.40
62581;DHT22;48640;48.770;9.148;2023-06-24T11:57:57;34.90;24.60
62581;DHT22;48640;48.770;9.148;2023-06-24T12:00:25;34.60;26.10
62581;DHT22;48640;48.770;9.148;2023-06-24T12:02:55;34.50;25.90
62581;DHT22;48640;48.770;9.148;2023-06-24T12:05:29;34.70;25.70
62581;DHT22;48640;48.770;9.148;2023-06-24T12:07:58;34.90;26.00
62581;DHT22;48640;48.770;9.148;2023-06-24T12:10:25;34.90;25.40
62581;DHT22;48640;48.770;9.148;2023-06-24T12:12:53;34.90;25.20
62581;DHT22;48640;48.770;9.148;2023-06-24T12:15:19;34.40;25.20
62581;DHT22;48640;48.770;9.148;2023-06-24T12:17:46;33.80;25.20
62581;DHT22;48640;48.770;9.148;2023-06-24T12:20:15;33.20;26.20
62581;DHT22;48640;48.770;9.148;2023-06-24T12:22:45;32.30;27.50
62581;DHT22;48640;48.770;9.148;2023-06-24T12:25:12;31.70;28.50
62581;DHT22;48640;48.770;9.148;2023-06-24T12:27:39;31.30;28.80
62581;DHT22;48640;48.770;9.148;2023-06-24T12:30:07;31.20;29.60
62581;DHT22;48640;48.770;9.148;2023-06-24T12:32:34;31.50;29.90
62581;DHT22;48640;48.770;9.148;2023-06-24T12:35:01;31.90;28.60
62581;DHT22;48640;48.770;9.148;2023-06-24T12:37:30;32.30;27.70
62581;DHT22;48640;48.770;9.148;2023-06-24T12:39:58;32.40;27.10
62581;DHT22;48640;48.770;9.148;2023-06-24T12:42:25;32.30;27.60
62581;DHT22;48640;48.770;9.148;2023-06-24T12:44:52;32.40;28.10
62581;DHT22;48640;48.770;9.148;2023-06-24T12:47:20;32.40;28.10
62581;DHT22;48640;48.770;9.148;2023-06-24T12:49:47;32.50;28.00
62581;DHT22;48640;48.770;9.148;2023-06-24T12:52:14;32.50;28.10
62581;DHT22;48640;48.770;9.148;2023-06-24T12:54:42;32.20;28.80
62581;DHT22;48640;48.770;9.148;2023-06-24T12:57:09;32.10;28.90
62581;DHT22;48640;48.770;9.148;2023-06-24T12:59:36;32.10;28.60
62581;DHT22;48640;48.770;9.148;2023-06-24T13:02:03;32.00;29.30
62581;DHT22;48640;48.770;9.148;2023-06-24T13:04:30;32.00;29.40
62581;DHT22;48640;48.770;9.148;2023-06-24T13:06:57;31.90;28.70
62581;DHT22;48640;48.770;9.148;2023-06-24T13:09:24;31.80;29.20
62581;DHT22;48640;48.770;9.148;2023-06-24T13:11:52;31.60;29.50
62581;DHT22;48640;48.770;9.148;2023-06-24T13:14:19;31.30;28.90
62581;DHT22;48640;48.770;9.148;2023-06-24T13:16:46;30.60;29.80
62581;DHT22;48640;48.770;9.148;2023-06-24T13:19:13;30.40;30.70
62581;DHT22;48640;48.770;9.148;2023-06-24T13:21:40;30.10;30.00
62581;DHT22;48640;48.770;9.148;2023-06-24T13:24:08;29.80;31.10
62581;DHT22;48640;48.770;9.148;2023-06-24T13:26:34;29.70;31.00
62581;DHT22;48640;48.770;9.148;2023-06-24T13:29:03;29.70;30.50
62581;DHT22;48640;48.770;9.148;2023-06-24T13:31:30;29.70;31.50
62581;DHT22;48640;48.770;9.148;2023-06-24T13:33:56;29.80;31.10
62581;DHT22;48640;48.770;9.148;2023-06-24T13:36:31;29.90;31.80
62581;DHT22;48640;48.770;9.148;2023-06-24T13:39:01;29.90;31.60
62581;DHT22;48640;48.770;9.148;2023-06-24T13:41:27;30.10;31.30
62581;DHT22;48640;48.770;9.148;2023-06-24T13:43:58;30.00;30.20
62581;DHT22;48640;48.770;9.148;2023-06-24T13:46:27;29.90;30.20
62581;DHT22;48640;48.770;9.148;2023-06-24T13:48:55;29.80;30.50
62581;DHT22;48640;48.770;9.148;2023-06-24T13:51:22;29.90;31.80
62581;DHT22;48640;48.770;9.148;2023-06-24T13:53:50;30.00;30.70
62581;DHT22;48640;48.770;9.148;2023-06-24T13:56:18;29.70;30.40
62581;DHT22;48640;48.770;9.148;2023-06-24T13:58:45;29.30;31.30
62581;DHT22;48640;48.770;9.148;2023-06-24T14:01:13;29.20;32.20
62581;DHT22;48640;48.770;9.148;2023-06-24T14:03:42;29.20;31.60
62581;DHT22;48640;48.770;9.148;2023-06-24T14:06:10;29.20;30.60
62581;DHT22;48640;48.770;9.148;2023-06-24T14:08:36;29.10;31.00
62581;DHT22;48640;48.770;9.148;2023-06-24T14:11:03;29.10;32.20
62581;DHT22;48640;48.770;9.148;2023-06-24T14:13:31;29.30;31.70
62581;DHT22;48640;48.770;9.148;2023-06-24T14:15:58;29.20;31.50
62581;DHT22;48640;48.770;9.148;2023-06-24T14:18:25;29.20;31.30
62581;DHT22;48640;48.770;9.148;2023-06-24T14:20:53;29.20;31.30
62581;DHT22;48640;48.770;9.148;2023-06-24T14:23:20;29.20;31.80
62581;DHT22;48640;48.770;9.148;2023-06-24T14:25:47;29.40;31.90
62581;DHT22;48640;48.770;9.148;2023-06-24T14:28:14;29.40;30.90
62581;DHT22;48640;48.770;9.148;2023-06-24T14:30:41;29.40;31.40
62581;DHT22;48640;48.770;9.148;2023-06-24T14:33:08;29.30;32.20
62581;DHT22;48640;48.770;9.148;2023-06-24T14:35:35;29.20;32.10
62581;DHT22;48640;48.770;9.148;2023-06-24T14:38:03;28.90;32.40
62581;DHT22;48640;48.770;9.148;2023-06-24T14:40:31;28.90;32.50
62581;DHT22;48640;48.770;9.148;2023-06-24T14:42:58;28.60;32.80
62581;DHT22;48640;48.770;9.148;2023-06-24T14:45:25;28.40;33.50
62581;DHT22;48640;48.770;9.148;2023-06-24T14:47:52;28.30;33.60
62581;DHT22;48640;48.770;9.148;2023-06-24T14:50:19;28.40;34.30
62581;DHT22;48640;48.770;9.148;2023-06-24T14:52:46;28.30;34.20
62581;DHT22;48640;48.770;9.148;2023-06-24T14:55:14;28.40;34.20
62581;DHT22;48640;48.770;9.148;2023-06-24T14:57:41;28.50;33.70
62581;DHT22;48640;48.770;9.148;2023-06-24T15:00:09;28.50;33.50
62581;DHT22;48640;48.770;9.148;2023-06-24T15:02:36;28.50;34.30
62581;DHT22;48640;48.770;9.148;2023-06-24T15:05:04;28.60;33.90
62581;DHT22;48640;48.770;9.148;2023-06-24T15:07:31;28.60;33.40
62581;DHT22;48640;48.770;9.148;2023-06-24T15:09:58;28.60;34.00
62581;DHT22;48640;48.770;9.148;2023-06-24T15:12:26;28.60;32.90
62581;DHT22;48640;48.770;9.148;2023-06-24T15:14:54;28.30;33.40
62581;DHT22;48640;48.770;9.148;2023-06-24T15:17:21;28.20;33.40
62581;DHT22;48640;48.770;9.148;2023-06-24T15:19:48;28.00;33.40
62581;DHT22;48640;48.770;9.148;2023-06-24T15:22:15;27.80;33.70
62581;DHT22;48640;48.770;9.148;2023-06-24T15:24:42;27.70;34.40
62581;DHT22;48640;48.770;9.148;2023-06-24T15:27:28;27.70;34.60
62581;DHT22;48640;48.770;9.148;2023-06-24T15:29:55;27.70;35.10
62581;DHT22;48640;48.770;9.148;2023-06-24T15:32:21;27.70;34.60
62581;DHT22;48640;48.770;9.148;2023-06-24T15:34:48;27.70;35.10
62581;DHT22;48640;48.770;9.148;2023-06-24T15:37:15;27.70;35.20